Latest METAR Data

Below are the latest METARs ("Meteorological Services to Airmen Reports"), for RNAS Culdrose and Newquay Airport.

EGDR - RNAS Culdrose
Distance from station: SW 6mi, 9km
Updated: Thu, 18-Apr-2024 5:50pm BST
Partly Cloudy
Partly Cloudy
 Wind from WSW
Wind: WSW 13 mph , 20 km/h
Temperature: 50°F , 10°C
Wind Chill: 45°F , 7°C
Dew Point: 39°F , 4°C
Humidity: 67%
Barometer: 30.27 inHg , 1025 hPa
Clouds: Partly Cloudy
Visibility: 6 miles , 10 km
Cloud details: Few Clouds 3000 ft
Partly Cloudy 15000 ft
2024/04/18 16:50 EGDR 181650Z 25011KT 9999 FEW030 SCT150 10/04 Q1025 NOSIG RMK BLU BLU
EGHQ - Newquay Airport
Distance from station: NE 21mi, 34km
Updated: Thu, 18-Apr-2024 5:50pm BST
Few Clouds
Few Clouds
 Wind from W
Wind: W 13 mph , 20 km/h
Temperature: 50°F , 10°C
Wind Chill: 45°F , 7°C
Dew Point: 43°F , 6°C
Humidity: 76%
Barometer: 30.27 inHg , 1025 hPa
Clouds: Few Clouds
Visibility: 6 miles , 10 km
Cloud details: Few Clouds 2000 ft
2024/04/18 16:50 EGHQ 181650Z 27011KT 9999 FEW020 10/06 Q1025
 
EGTE - Exeter Airport
Distance from station: ENE 88mi, 141km
Updated: Thu, 18-Apr-2024 5:50pm BST
Few Clouds
Few Clouds
 Wind from NW
Wind: NW 10 mph , 17 km/h
Temperature: 57°F , 14°C
Dew Point: 37°F , 3°C
Humidity: 48%
Barometer: 30.21 inHg , 1023 hPa
Clouds: Few Clouds
Visibility: 6 miles , 10 km
Cloud details: Few Clouds 4000 ft
2024/04/18 16:50 EGTE 181650Z 31009KT 280V340 9999 FEW040 14/03 Q1023
EGHE - St Marys, IOS
Distance from station: W 51mi, 82km
Updated: Thu, 18-Apr-2024 5:50pm BST
Few Clouds
Few Clouds
 Wind from WSW
Wind: WSW 10 mph , 17 km/h
Temperature: 54°F , 12°C
Dew Point: 41°F , 5°C
Humidity: 63%
Barometer: 30.3 inHg , 1026 hPa
Clouds: Few Clouds
Visibility: 6 miles , 10 km
Cloud details: Few Clouds 2000 ft
2024/04/18 16:50 EGHE 181650Z 25009KT 220V280 9999 FEW020 12/05 Q1026

Metar display script from Saratoga-Weather.org

 

 

UK - WEATHER STATION TOPSITES - UK

Copyright © Carnkie Weather 2009 - 2024.